Relevés horaires St-Hubert (Belgique)


Relevés horaires à St-Hubert - Jeudi 19 Juill. 2018
Heure UTC1 Température [°C] Vent [km/h] Hum. [%] Pres.4 [hPa] Visi. [Km] Nébu. [octa] Préc.5 [mm] Cond.
2m. Res. Ros. Dir.2 Vit. Moy. Raf.3
23:00 16.3 16.3 9.7 NNO 0.0 0.0 0.0 65 1017(0.1/3h) 45 0/8 -- --
22:00 17.2 17.2 9.4 NNO 0.0 0.0 0.0 60 1017(0.2/3h) 45 0/8 -- --
21:00 18.6 18.6 9.3 NNO 0.0 0.0 0.0 55 1016.6(0.3/3h) 45 0/8 -- --
20:00 20.3 20.3 8.8 NNO 0.0 0.0 0.0 48 1016.2(0.3/3h) 40 0/8 -- --
19:00 22.1 22.1 8.8 NNO 0.0 0.0 0.0 43 1015.7(-0.2/3h) 40 0/8 -- --
18:00 23.7 23.7 8.9 NNO 0.0 0.0 0.0 39 1015.1(-0.8/3h) 20 0/8 0/12h
--
17:00 24.2 24.2 8.4 NNO 0.0 0.0 0.0 37 1015.1(-1.1/3h) 30 0/8 -- --
16:00 24.7 24.7 8.7 NNO 0.0 0.0 0.0 36 1015.3(-0.9/3h) 30 0/8 -- --
15:00 24.2 24.2 9.0 NNO 0.0 0.0 0.0 38 1015.8(-0.8/3h) 35 0/8 -- --
14:00 23.2 23.2 8.0 NNO 0.0 0.0 0.0 38 1016.4(-0.6/3h) 35 0/8 -- --
13:00 23.6 23.6 8.8 NNO 0.0 0.0 0.0 39 1016.5(-0.6/3h) 30 0/8 -- --
12:00 23.4 23.4 9.1 NNO 0.0 0.0 0.0 40 1016.9(-0.5/3h) 24 0/8 0/6h
--
11:00 21.7 21.7 8.4 NNO 0.0 0.0 0.0 42 1017.4(-0.3/3h) 29 0/8 -- --
10:00 21.7 21.7 10.1 NNO 0.0 0.0 0.0 48 1017.6(0.1/3h) 30 0/8 -- --
09:00 20.7 20.7 8.6 NNO 0.0 0.0 0.0 46 1018(0.0/3h) 35 0/8 -- --
08:00 20.6 20.6 8.6 NNO 0.0 0.0 0.0 46 1018(0.2/3h) 35 0/8 -- --
07:00 20.0 20.0 8.4 NNO 0.0 0.0 0.0 47 1018.1(0.4/3h) 35 0/8 -- --
06:00 17.2 17.2 9.7 NNO 0.0 0.0 0.0 61 1018.8(0.2/3h) 28 0/8 0/12h
--
05:00 14.8 14.8 9.2 NNO 0.0 0.0 0.0 69 1019(-0.1/3h) 35 0/8 -- --
04:00 11.2 11.2 8.9 NNO 0.0 0.0 0.0 86 1019.6(-0.6/3h) 27 0/8 -- --
03:00 10.9 10.9 8.7 NNO 0.0 0.0 0.0 86 1020(-0.6/3h) 29 0/8 -- --
02:00 12.7 12.7 8.9 NNO 0.0 0.0 0.0 78 1019.6(-0.4/3h) 30 0/8 -- --
01:00 14.1 14.1 9.6 NNO 0.0 0.0 0.0 74 1019.6(0.3/3h) 30 0/8 -- --
00:00 14.5 14.5 9.9 NNO 0.0 0.0 0.0 74 1019.7(0.6/3h) 40 0/8 0/6h
0/24h
--

1 Coordinated Universal Time. Actuellement il est 13:00 locale et 11:00 UTC.

2 Le vent souffle depuis la direction indiquée vers la direction oposée.

3 Les rafales max. sont disponible 40 min après l'heure du relevé.

4 Pour les stations d'altitude (plus de 600m) le géopotentiel du niveau le plus proche de la pression obligatoire est indiqué.

5 Les stations disposant d'un diffuseur peuvent indiquer "trace". Cela signifie que des précipitations ont touchés le sol mais que la quantité est inférieure à 0.1 mm.

Récapitulatif de la journée
Température [°C] Vent [km/h] Ensoleillement4 [h] Precipitations totale5 [mm] Pression [Hpa]
Min1 Max.2 Moy.3 Max. Min Max.
10.6 24.9 0 0.0 0 h 0 min 0 1015.1 1020.0

1 Température minimale relevée entre 18:00 UTC la veille et 18:00 UTC le jour donné.

2 Température maximale relevée entre 06:00 UTC le jour donné et 06:00 UTC le lendemain.

3 Vent moyen de la journée basé sur les relevés horaires.

4 Ensoleillement en heures relevé entre 06:00 UTC la veille et 06:00 UTC le jour donné.

5 Précipitations totales tombées entre 06:00 UTC la jour donné et 06:00 UTC le lendemain.

Graphiques horaires